sensor_id;sensor_type;location;lat;lon;timestamp;P1;durP1;ratioP1;P2;durP2;ratioP2
15071;SDS011;7635;56.696;13.002;2023-03-16T00:00:19;4.27;;;1.40;;
15071;SDS011;7635;56.696;13.002;2023-03-16T00:02:46;1.17;;;1.07;;
15071;SDS011;7635;56.696;13.002;2023-03-16T00:05:13;1.73;;;1.00;;
15071;SDS011;7635;56.696;13.002;2023-03-16T00:07:40;1.40;;;1.23;;
15071;SDS011;7635;56.696;13.002;2023-03-16T00:10:08;1.53;;;1.20;;
15071;SDS011;7635;56.696;13.002;2023-03-16T00:12:36;1.67;;;1.30;;
15071;SDS011;7635;56.696;13.002;2023-03-16T00:15:05;1.70;;;1.57;;
15071;SDS011;7635;56.696;13.002;2023-03-16T00:17:33;3.20;;;1.10;;
15071;SDS011;7635;56.696;13.002;2023-03-16T00:19:59;3.53;;;1.30;;
15071;SDS011;7635;56.696;13.002;2023-03-16T00:22:30;2.90;;;1.47;;
15071;SDS011;7635;56.696;13.002;2023-03-16T00:24:57;2.03;;;1.07;;
15071;SDS011;7635;56.696;13.002;2023-03-16T00:27:24;1.57;;;1.27;;
15071;SDS011;7635;56.696;13.002;2023-03-16T00:29:51;1.87;;;1.30;;
15071;SDS011;7635;56.696;13.002;2023-03-16T00:32:21;1.97;;;1.67;;
15071;SDS011;7635;56.696;13.002;2023-03-16T00:34:49;2.00;;;1.10;;
15071;SDS011;7635;56.696;13.002;2023-03-16T00:37:16;1.33;;;1.23;;
15071;SDS011;7635;56.696;13.002;2023-03-16T00:39:45;2.33;;;1.33;;
15071;SDS011;7635;56.696;13.002;2023-03-16T00:42:12;1.80;;;1.20;;
15071;SDS011;7635;56.696;13.002;2023-03-16T00:44:41;3.83;;;1.70;;
15071;SDS011;7635;56.696;13.002;2023-03-16T00:47:07;3.07;;;1.23;;
15071;SDS011;7635;56.696;13.002;2023-03-16T00:49:39;3.77;;;1.80;;
15071;SDS011;7635;56.696;13.002;2023-03-16T00:52:07;3.37;;;1.40;;
15071;SDS011;7635;56.696;13.002;2023-03-16T00:54:39;2.13;;;1.20;;
15071;SDS011;7635;56.696;13.002;2023-03-16T00:57:07;3.00;;;1.30;;
15071;SDS011;7635;56.696;13.002;2023-03-16T00:59:36;2.70;;;1.60;;
15071;SDS011;7635;56.696;13.002;2023-03-16T01:02:03;1.70;;;1.60;;
15071;SDS011;7635;56.696;13.002;2023-03-16T01:04:30;2.03;;;1.60;;
15071;SDS011;7635;56.696;13.002;2023-03-16T01:06:59;2.83;;;1.60;;
15071;SDS011;7635;56.696;13.002;2023-03-16T01:09:26;1.80;;;1.13;;
15071;SDS011;7635;56.696;13.002;2023-03-16T01:11:53;2.07;;;1.40;;
15071;SDS011;7635;56.696;13.002;2023-03-16T01:14:20;2.73;;;1.37;;
15071;SDS011;7635;56.696;13.002;2023-03-16T01:16:48;1.83;;;1.47;;
15071;SDS011;7635;56.696;13.002;2023-03-16T01:19:15;2.00;;;1.50;;
15071;SDS011;7635;56.696;13.002;2023-03-16T01:21:42;1.57;;;1.47;;
15071;SDS011;7635;56.696;13.002;2023-03-16T01:24:10;2.17;;;1.53;;
15071;SDS011;7635;56.696;13.002;2023-03-16T01:26:37;1.50;;;1.40;;
15071;SDS011;7635;56.696;13.002;2023-03-16T01:29:03;2.13;;;1.57;;
15071;SDS011;7635;56.696;13.002;2023-03-16T01:31:30;2.70;;;1.70;;
15071;SDS011;7635;56.696;13.002;2023-03-16T01:33:57;1.50;;;1.40;;
15071;SDS011;7635;56.696;13.002;2023-03-16T01:36:24;1.33;;;1.23;;
15071;SDS011;7635;56.696;13.002;2023-03-16T01:38:50;1.97;;;1.70;;
15071;SDS011;7635;56.696;13.002;2023-03-16T01:41:19;2.00;;;1.70;;
15071;SDS011;7635;56.696;13.002;2023-03-16T01:43:46;1.87;;;1.50;;
15071;SDS011;7635;56.696;13.002;2023-03-16T01:46:14;1.93;;;1.53;;
15071;SDS011;7635;56.696;13.002;2023-03-16T01:48:45;2.77;;;1.40;;
15071;SDS011;7635;56.696;13.002;2023-03-16T01:51:18;3.00;;;1.60;;
15071;SDS011;7635;56.696;13.002;2023-03-16T01:53:49;1.87;;;1.47;;
15071;SDS011;7635;56.696;13.002;2023-03-16T01:56:21;2.60;;;1.60;;
15071;SDS011;7635;56.696;13.002;2023-03-16T01:58:51;3.17;;;1.70;;
15071;SDS011;7635;56.696;13.002;2023-03-16T02:01:22;2.27;;;1.40;;
15071;SDS011;7635;56.696;13.002;2023-03-16T02:03:50;1.43;;;1.30;;
15071;SDS011;7635;56.696;13.002;2023-03-16T02:06:20;1.50;;;1.40;;
15071;SDS011;7635;56.696;13.002;2023-03-16T02:08:48;1.60;;;1.50;;
15071;SDS011;7635;56.696;13.002;2023-03-16T02:11:20;2.00;;;1.70;;
15071;SDS011;7635;56.696;13.002;2023-03-16T02:13:48;1.50;;;1.40;;
15071;SDS011;7635;56.696;13.002;2023-03-16T02:16:16;1.20;;;1.07;;
15071;SDS011;7635;56.696;13.002;2023-03-16T02:18:46;1.33;;;1.23;;
15071;SDS011;7635;56.696;13.002;2023-03-16T02:21:16;1.10;;;1.10;;
15071;SDS011;7635;56.696;13.002;2023-03-16T02:23:50;1.37;;;1.27;;
15071;SDS011;7635;56.696;13.002;2023-03-16T02:26:19;1.23;;;1.13;;
15071;SDS011;7635;56.696;13.002;2023-03-16T02:28:53;1.17;;;1.10;;
15071;SDS011;7635;56.696;13.002;2023-03-16T02:31:32;1.20;;;1.10;;
15071;SDS011;7635;56.696;13.002;2023-03-16T02:33:59;1.00;;;1.00;;
15071;SDS011;7635;56.696;13.002;2023-03-16T02:36:26;1.50;;;1.40;;
15071;SDS011;7635;56.696;13.002;2023-03-16T02:38:54;0.93;;;0.93;;
15071;SDS011;7635;56.696;13.002;2023-03-16T02:41:21;1.63;;;1.30;;
15071;SDS011;7635;56.696;13.002;2023-03-16T02:43:49;1.30;;;1.20;;
15071;SDS011;7635;56.696;13.002;2023-03-16T02:46:20;1.83;;;1.53;;
15071;SDS011;7635;56.696;13.002;2023-03-16T02:48:52;1.30;;;1.20;;
15071;SDS011;7635;56.696;13.002;2023-03-16T02:51:26;1.77;;;1.20;;
15071;SDS011;7635;56.696;13.002;2023-03-16T02:53:53;1.10;;;1.10;;
15071;SDS011;7635;56.696;13.002;2023-03-16T02:56:20;1.37;;;1.20;;
15071;SDS011;7635;56.696;13.002;2023-03-16T02:58:47;1.13;;;1.07;;
15071;SDS011;7635;56.696;13.002;2023-03-16T03:01:14;1.47;;;1.37;;
15071;SDS011;7635;56.696;13.002;2023-03-16T03:03:43;1.00;;;1.00;;
15071;SDS011;7635;56.696;13.002;2023-03-16T03:06:11;1.30;;;1.20;;
15071;SDS011;7635;56.696;13.002;2023-03-16T03:08:38;1.47;;;1.37;;
15071;SDS011;7635;56.696;13.002;2023-03-16T03:11:05;1.73;;;1.50;;
15071;SDS011;7635;56.696;13.002;2023-03-16T03:13:31;1.57;;;1.23;;
15071;SDS011;7635;56.696;13.002;2023-03-16T03:15:58;1.40;;;1.30;;
15071;SDS011;7635;56.696;13.002;2023-03-16T03:18:25;1.40;;;1.30;;
15071;SDS011;7635;56.696;13.002;2023-03-16T03:20:52;1.47;;;1.37;;
15071;SDS011;7635;56.696;13.002;2023-03-16T03:23:20;1.57;;;1.47;;
15071;SDS011;7635;56.696;13.002;2023-03-16T03:25:47;1.60;;;1.50;;
15071;SDS011;7635;56.696;13.002;2023-03-16T03:28:14;1.60;;;1.50;;
15071;SDS011;7635;56.696;13.002;2023-03-16T03:30:41;1.37;;;1.27;;
15071;SDS011;7635;56.696;13.002;2023-03-16T03:33:07;1.10;;;1.00;;
15071;SDS011;7635;56.696;13.002;2023-03-16T03:35:34;1.70;;;1.20;;
15071;SDS011;7635;56.696;13.002;2023-03-16T03:38:01;1.20;;;1.10;;
15071;SDS011;7635;56.696;13.002;2023-03-16T03:40:29;1.60;;;1.50;;
15071;SDS011;7635;56.696;13.002;2023-03-16T03:42:55;0.93;;;0.93;;
15071;SDS011;7635;56.696;13.002;2023-03-16T03:45:22;1.30;;;1.10;;
15071;SDS011;7635;56.696;13.002;2023-03-16T03:47:49;1.60;;;1.50;;
15071;SDS011;7635;56.696;13.002;2023-03-16T03:50:16;2.43;;;1.93;;
15071;SDS011;7635;56.696;13.002;2023-03-16T03:52:43;1.73;;;1.63;;
15071;SDS011;7635;56.696;13.002;2023-03-16T03:55:10;1.63;;;1.53;;
15071;SDS011;7635;56.696;13.002;2023-03-16T03:57:38;1.50;;;1.40;;
15071;SDS011;7635;56.696;13.002;2023-03-16T04:00:06;1.30;;;1.20;;
15071;SDS011;7635;56.696;13.002;2023-03-16T04:02:35;1.33;;;1.23;;
15071;SDS011;7635;56.696;13.002;2023-03-16T04:05:02;1.40;;;1.30;;
15071;SDS011;7635;56.696;13.002;2023-03-16T04:07:29;2.07;;;1.40;;
15071;SDS011;7635;56.696;13.002;2023-03-16T04:09:56;1.30;;;1.20;;
15071;SDS011;7635;56.696;13.002;2023-03-16T04:12:22;1.60;;;1.47;;
15071;SDS011;7635;56.696;13.002;2023-03-16T04:14:51;2.03;;;1.60;;
15071;SDS011;7635;56.696;13.002;2023-03-16T04:17:17;1.30;;;1.30;;
15071;SDS011;7635;56.696;13.002;2023-03-16T04:19:44;1.30;;;1.20;;
15071;SDS011;7635;56.696;13.002;2023-03-16T04:22:11;0.90;;;0.90;;
15071;SDS011;7635;56.696;13.002;2023-03-16T04:24:38;0.90;;;0.90;;
15071;SDS011;7635;56.696;13.002;2023-03-16T04:27:07;1.03;;;0.93;;
15071;SDS011;7635;56.696;13.002;2023-03-16T04:29:36;1.17;;;1.10;;
15071;SDS011;7635;56.696;13.002;2023-03-16T04:32:04;1.47;;;1.37;;
15071;SDS011;7635;56.696;13.002;2023-03-16T04:34:31;1.37;;;1.27;;
15071;SDS011;7635;56.696;13.002;2023-03-16T04:36:58;2.67;;;1.57;;
15071;SDS011;7635;56.696;13.002;2023-03-16T04:39:26;1.33;;;1.23;;
15071;SDS011;7635;56.696;13.002;2023-03-16T04:41:52;1.10;;;1.10;;
15071;SDS011;7635;56.696;13.002;2023-03-16T04:44:19;1.53;;;1.43;;
15071;SDS011;7635;56.696;13.002;2023-03-16T04:46:46;1.50;;;1.40;;
15071;SDS011;7635;56.696;13.002;2023-03-16T04:49:14;1.17;;;1.10;;
15071;SDS011;7635;56.696;13.002;2023-03-16T04:51:40;1.40;;;0.90;;
15071;SDS011;7635;56.696;13.002;2023-03-16T04:54:07;1.23;;;1.13;;
15071;SDS011;7635;56.696;13.002;2023-03-16T04:56:35;1.27;;;1.17;;
15071;SDS011;7635;56.696;13.002;2023-03-16T04:59:05;0.73;;;0.73;;
15071;SDS011;7635;56.696;13.002;2023-03-16T05:01:32;1.00;;;1.00;;
15071;SDS011;7635;56.696;13.002;2023-03-16T05:03:58;1.97;;;1.07;;
15071;SDS011;7635;56.696;13.002;2023-03-16T05:06:27;1.15;;;1.10;;
15071;SDS011;7635;56.696;13.002;2023-03-16T05:08:55;1.27;;;1.17;;
15071;SDS011;7635;56.696;13.002;2023-03-16T05:11:23;1.23;;;1.00;;
15071;SDS011;7635;56.696;13.002;2023-03-16T05:13:50;1.13;;;1.13;;
15071;SDS011;7635;56.696;13.002;2023-03-16T05:16:17;1.23;;;1.13;;
15071;SDS011;7635;56.696;13.002;2023-03-16T05:18:43;1.23;;;1.17;;
15071;SDS011;7635;56.696;13.002;2023-03-16T05:21:10;0.90;;;0.90;;
15071;SDS011;7635;56.696;13.002;2023-03-16T05:23:38;1.37;;;1.27;;
15071;SDS011;7635;56.696;13.002;2023-03-16T05:26:05;1.00;;;1.00;;
15071;SDS011;7635;56.696;13.002;2023-03-16T05:28:32;1.27;;;1.17;;
15071;SDS011;7635;56.696;13.002;2023-03-16T05:30:59;2.27;;;1.23;;
15071;SDS011;7635;56.696;13.002;2023-03-16T05:33:27;1.20;;;1.00;;
15071;SDS011;7635;56.696;13.002;2023-03-16T05:35:54;1.73;;;1.63;;
15071;SDS011;7635;56.696;13.002;2023-03-16T05:38:22;3.17;;;2.13;;
15071;SDS011;7635;56.696;13.002;2023-03-16T05:40:50;4.07;;;2.67;;
15071;SDS011;7635;56.696;13.002;2023-03-16T05:43:17;7.23;;;2.97;;
15071;SDS011;7635;56.696;13.002;2023-03-16T05:45:43;17.77;;;4.77;;
15071;SDS011;7635;56.696;13.002;2023-03-16T05:48:10;11.97;;;4.20;;
15071;SDS011;7635;56.696;13.002;2023-03-16T05:50:37;9.13;;;4.03;;
15071;SDS011;7635;56.696;13.002;2023-03-16T05:53:04;5.03;;;2.87;;
15071;SDS011;7635;56.696;13.002;2023-03-16T05:55:30;3.50;;;2.40;;
15071;SDS011;7635;56.696;13.002;2023-03-16T05:57:58;2.20;;;1.80;;
15071;SDS011;7635;56.696;13.002;2023-03-16T06:00:25;2.63;;;1.90;;
15071;SDS011;7635;56.696;13.002;2023-03-16T06:02:53;2.17;;;1.50;;
15071;SDS011;7635;56.696;13.002;2023-03-16T06:05:20;2.10;;;1.90;;
15071;SDS011;7635;56.696;13.002;2023-03-16T06:07:49;2.10;;;1.60;;
15071;SDS011;7635;56.696;13.002;2023-03-16T06:10:16;1.50;;;1.40;;
15071;SDS011;7635;56.696;13.002;2023-03-16T06:12:43;3.63;;;1.67;;
15071;SDS011;7635;56.696;13.002;2023-03-16T06:15:11;3.10;;;1.80;;
15071;SDS011;7635;56.696;13.002;2023-03-16T06:17:38;1.93;;;1.60;;
15071;SDS011;7635;56.696;13.002;2023-03-16T06:20:12;2.07;;;1.47;;
15071;SDS011;7635;56.696;13.002;2023-03-16T06:22:39;1.40;;;1.30;;
15071;SDS011;7635;56.696;13.002;2023-03-16T06:25:07;1.57;;;1.30;;
15071;SDS011;7635;56.696;13.002;2023-03-16T06:27:36;1.13;;;1.10;;
15071;SDS011;7635;56.696;13.002;2023-03-16T06:30:04;1.50;;;1.40;;
15071;SDS011;7635;56.696;13.002;2023-03-16T06:32:33;1.90;;;1.40;;
15071;SDS011;7635;56.696;13.002;2023-03-16T06:35:02;1.50;;;1.40;;
15071;SDS011;7635;56.696;13.002;2023-03-16T06:37:29;1.83;;;1.53;;
15071;SDS011;7635;56.696;13.002;2023-03-16T06:39:56;1.30;;;1.20;;
15071;SDS011;7635;56.696;13.002;2023-03-16T06:42:22;1.07;;;1.07;;
15071;SDS011;7635;56.696;13.002;2023-03-16T06:44:49;0.90;;;0.90;;
15071;SDS011;7635;56.696;13.002;2023-03-16T06:47:16;0.93;;;0.93;;
15071;SDS011;7635;56.696;13.002;2023-03-16T06:49:44;1.00;;;1.00;;
15071;SDS011;7635;56.696;13.002;2023-03-16T06:52:12;1.47;;;1.07;;
15071;SDS011;7635;56.696;13.002;2023-03-16T06:54:39;1.00;;;1.00;;
15071;SDS011;7635;56.696;13.002;2023-03-16T06:57:06;1.10;;;1.00;;
15071;SDS011;7635;56.696;13.002;2023-03-16T06:59:33;1.10;;;1.00;;
15071;SDS011;7635;56.696;13.002;2023-03-16T07:01:59;1.27;;;1.17;;
15071;SDS011;7635;56.696;13.002;2023-03-16T07:04:26;1.13;;;1.13;;
15071;SDS011;7635;56.696;13.002;2023-03-16T07:06:54;1.40;;;1.30;;
15071;SDS011;7635;56.696;13.002;2023-03-16T07:09:21;1.17;;;1.03;;
15071;SDS011;7635;56.696;13.002;2023-03-16T07:11:48;1.10;;;1.10;;
15071;SDS011;7635;56.696;13.002;2023-03-16T07:14:15;1.10;;;1.00;;
15071;SDS011;7635;56.696;13.002;2023-03-16T07:16:43;1.03;;;1.03;;
15071;SDS011;7635;56.696;13.002;2023-03-16T07:19:10;0.90;;;0.90;;
15071;SDS011;7635;56.696;13.002;2023-03-16T07:21:37;1.30;;;0.93;;
15071;SDS011;7635;56.696;13.002;2023-03-16T07:24:06;1.00;;;1.00;;
15071;SDS011;7635;56.696;13.002;2023-03-16T07:26:34;1.20;;;1.10;;
15071;SDS011;7635;56.696;13.002;2023-03-16T07:29:02;1.30;;;1.20;;
15071;SDS011;7635;56.696;13.002;2023-03-16T07:31:30;1.13;;;1.10;;
15071;SDS011;7635;56.696;13.002;2023-03-16T07:33:57;1.10;;;1.10;;
15071;SDS011;7635;56.696;13.002;2023-03-16T07:36:24;1.40;;;1.33;;
15071;SDS011;7635;56.696;13.002;2023-03-16T07:38:50;1.50;;;1.00;;
15071;SDS011;7635;56.696;13.002;2023-03-16T07:41:18;1.23;;;1.13;;
15071;SDS011;7635;56.696;13.002;2023-03-16T07:43:46;1.40;;;1.30;;
15071;SDS011;7635;56.696;13.002;2023-03-16T07:46:12;1.33;;;1.23;;
15071;SDS011;7635;56.696;13.002;2023-03-16T07:48:39;1.30;;;1.20;;
15071;SDS011;7635;56.696;13.002;2023-03-16T07:51:07;1.20;;;1.10;;
15071;SDS011;7635;56.696;13.002;2023-03-16T07:53:34;1.17;;;1.00;;
15071;SDS011;7635;56.696;13.002;2023-03-16T07:56:01;1.57;;;1.30;;
15071;SDS011;7635;56.696;13.002;2023-03-16T07:58:29;1.30;;;1.20;;
15071;SDS011;7635;56.696;13.002;2023-03-16T08:00:55;1.67;;;1.20;;
15071;SDS011;7635;56.696;13.002;2023-03-16T08:03:23;1.30;;;1.20;;
15071;SDS011;7635;56.696;13.002;2023-03-16T08:05:51;1.43;;;1.33;;
15071;SDS011;7635;56.696;13.002;2023-03-16T08:08:18;1.47;;;1.17;;
15071;SDS011;7635;56.696;13.002;2023-03-16T08:10:45;1.20;;;1.10;;
15071;SDS011;7635;56.696;13.002;2023-03-16T08:13:13;1.70;;;1.23;;
15071;SDS011;7635;56.696;13.002;2023-03-16T08:15:41;1.40;;;1.17;;
15071;SDS011;7635;56.696;13.002;2023-03-16T08:18:11;2.53;;;1.47;;
15071;SDS011;7635;56.696;13.002;2023-03-16T08:20:38;1.20;;;1.10;;
15071;SDS011;7635;56.696;13.002;2023-03-16T08:23:05;1.10;;;1.00;;
15071;SDS011;7635;56.696;13.002;2023-03-16T08:25:32;0.90;;;0.90;;
15071;SDS011;7635;56.696;13.002;2023-03-16T08:27:59;3.30;;;1.10;;
15071;SDS011;7635;56.696;13.002;2023-03-16T08:30:26;0.97;;;0.90;;
15071;SDS011;7635;56.696;13.002;2023-03-16T08:32:56;1.13;;;1.00;;
15071;SDS011;7635;56.696;13.002;2023-03-16T08:35:23;1.40;;;1.00;;
15071;SDS011;7635;56.696;13.002;2023-03-16T08:37:49;1.20;;;1.10;;
15071;SDS011;7635;56.696;13.002;2023-03-16T08:40:16;1.57;;;1.10;;
15071;SDS011;7635;56.696;13.002;2023-03-16T08:42:46;0.80;;;0.80;;
15071;SDS011;7635;56.696;13.002;2023-03-16T08:45:14;2.63;;;1.30;;
15071;SDS011;7635;56.696;13.002;2023-03-16T08:47:41;3.53;;;1.03;;
15071;SDS011;7635;56.696;13.002;2023-03-16T08:50:10;1.70;;;1.23;;
15071;SDS011;7635;56.696;13.002;2023-03-16T08:52:37;1.43;;;1.20;;
15071;SDS011;7635;56.696;13.002;2023-03-16T08:55:06;1.20;;;1.00;;
15071;SDS011;7635;56.696;13.002;2023-03-16T08:57:35;2.07;;;1.30;;
15071;SDS011;7635;56.696;13.002;2023-03-16T09:00:03;1.13;;;1.10;;
15071;SDS011;7635;56.696;13.002;2023-03-16T09:02:36;1.80;;;0.93;;
15071;SDS011;7635;56.696;13.002;2023-03-16T09:05:05;1.10;;;1.00;;
15071;SDS011;7635;56.696;13.002;2023-03-16T09:07:34;0.83;;;0.83;;
15071;SDS011;7635;56.696;13.002;2023-03-16T09:10:01;0.77;;;0.77;;
15071;SDS011;7635;56.696;13.002;2023-03-16T09:12:29;1.20;;;1.10;;
15071;SDS011;7635;56.696;13.002;2023-03-16T09:14:56;1.20;;;1.10;;
15071;SDS011;7635;56.696;13.002;2023-03-16T09:17:23;0.90;;;0.90;;
15071;SDS011;7635;56.696;13.002;2023-03-16T09:19:51;1.87;;;1.20;;
15071;SDS011;7635;56.696;13.002;2023-03-16T09:22:18;0.80;;;0.80;;
15071;SDS011;7635;56.696;13.002;2023-03-16T09:24:46;1.17;;;1.13;;
15071;SDS011;7635;56.696;13.002;2023-03-16T09:27:13;1.10;;;1.00;;
15071;SDS011;7635;56.696;13.002;2023-03-16T09:29:40;1.13;;;1.00;;
15071;SDS011;7635;56.696;13.002;2023-03-16T09:32:08;2.00;;;1.00;;
15071;SDS011;7635;56.696;13.002;2023-03-16T09:34:35;0.70;;;0.70;;
15071;SDS011;7635;56.696;13.002;2023-03-16T09:37:02;1.30;;;1.20;;
15071;SDS011;7635;56.696;13.002;2023-03-16T09:39:29;2.07;;;1.30;;
15071;SDS011;7635;56.696;13.002;2023-03-16T09:41:58;1.17;;;0.93;;
15071;SDS011;7635;56.696;13.002;2023-03-16T09:44:33;0.80;;;0.80;;
15071;SDS011;7635;56.696;13.002;2023-03-16T09:47:09;1.80;;;1.27;;
15071;SDS011;7635;56.696;13.002;2023-03-16T09:49:39;1.67;;;1.20;;
15071;SDS011;7635;56.696;13.002;2023-03-16T09:52:12;0.83;;;0.80;;
15071;SDS011;7635;56.696;13.002;2023-03-16T09:54:48;0.80;;;0.80;;
15071;SDS011;7635;56.696;13.002;2023-03-16T09:57:22;1.23;;;1.10;;
15071;SDS011;7635;56.696;13.002;2023-03-16T09:59:52;1.37;;;0.97;;
15071;SDS011;7635;56.696;13.002;2023-03-16T10:05:13;0.90;;;0.90;;
15071;SDS011;7635;56.696;13.002;2023-03-16T10:07:47;1.07;;;1.00;;
15071;SDS011;7635;56.696;13.002;2023-03-16T10:10:20;0.70;;;0.70;;
15071;SDS011;7635;56.696;13.002;2023-03-16T10:12:54;1.60;;;1.10;;
15071;SDS011;7635;56.696;13.002;2023-03-16T10:15:28;1.10;;;0.90;;
15071;SDS011;7635;56.696;13.002;2023-03-16T10:17:59;0.90;;;0.90;;
15071;SDS011;7635;56.696;13.002;2023-03-16T10:20:32;1.37;;;1.20;;
15071;SDS011;7635;56.696;13.002;2023-03-16T10:23:07;1.17;;;1.07;;
15071;SDS011;7635;56.696;13.002;2023-03-16T10:25:41;0.80;;;0.80;;
15071;SDS011;7635;56.696;13.002;2023-03-16T10:28:14;3.03;;;1.13;;
15071;SDS011;7635;56.696;13.002;2023-03-16T10:30:42;1.33;;;1.13;;
15071;SDS011;7635;56.696;13.002;2023-03-16T10:33:13;1.10;;;1.00;;
15071;SDS011;7635;56.696;13.002;2023-03-16T10:35:46;1.13;;;1.03;;
15071;SDS011;7635;56.696;13.002;2023-03-16T10:38:27;1.00;;;0.90;;
15071;SDS011;7635;56.696;13.002;2023-03-16T10:40:57;1.10;;;1.10;;
15071;SDS011;7635;56.696;13.002;2023-03-16T10:43:26;2.37;;;0.97;;
15071;SDS011;7635;56.696;13.002;2023-03-16T10:45:59;1.87;;;1.23;;
15071;SDS011;7635;56.696;13.002;2023-03-16T10:48:27;1.10;;;1.00;;
15071;SDS011;7635;56.696;13.002;2023-03-16T10:50:57;0.80;;;0.80;;
15071;SDS011;7635;56.696;13.002;2023-03-16T10:53:28;1.67;;;1.07;;
15071;SDS011;7635;56.696;13.002;2023-03-16T10:55:57;1.63;;;1.23;;
15071;SDS011;7635;56.696;13.002;2023-03-16T10:58:28;1.37;;;1.07;;
15071;SDS011;7635;56.696;13.002;2023-03-16T11:00:56;0.90;;;0.90;;
15071;SDS011;7635;56.696;13.002;2023-03-16T11:03:25;1.27;;;1.07;;
15071;SDS011;7635;56.696;13.002;2023-03-16T11:05:56;1.07;;;1.00;;
15071;SDS011;7635;56.696;13.002;2023-03-16T11:08:24;2.43;;;1.30;;
15071;SDS011;7635;56.696;13.002;2023-03-16T11:10:54;1.47;;;1.20;;
15071;SDS011;7635;56.696;13.002;2023-03-16T11:13:23;2.10;;;1.20;;
15071;SDS011;7635;56.696;13.002;2023-03-16T11:15:57;1.23;;;1.13;;
15071;SDS011;7635;56.696;13.002;2023-03-16T11:18:29;0.77;;;0.77;;
15071;SDS011;7635;56.696;13.002;2023-03-16T11:21:01;1.03;;;1.00;;
15071;SDS011;7635;56.696;13.002;2023-03-16T11:23:38;1.20;;;1.10;;
15071;SDS011;7635;56.696;13.002;2023-03-16T11:26:14;1.43;;;1.17;;
15071;SDS011;7635;56.696;13.002;2023-03-16T11:28:49;0.83;;;0.67;;
15071;SDS011;7635;56.696;13.002;2023-03-16T11:31:27;1.17;;;1.07;;
15071;SDS011;7635;56.696;13.002;2023-03-16T11:34:07;0.83;;;0.83;;
15071;SDS011;7635;56.696;13.002;2023-03-16T11:36:42;1.17;;;1.10;;
15071;SDS011;7635;56.696;13.002;2023-03-16T11:39:18;1.40;;;1.30;;
15071;SDS011;7635;56.696;13.002;2023-03-16T11:41:57;2.17;;;1.27;;
15071;SDS011;7635;56.696;13.002;2023-03-16T11:44:35;1.23;;;1.00;;
15071;SDS011;7635;56.696;13.002;2023-03-16T11:47:14;1.20;;;1.10;;
15071;SDS011;7635;56.696;13.002;2023-03-16T11:49:54;0.90;;;0.90;;
15071;SDS011;7635;56.696;13.002;2023-03-16T11:52:29;2.57;;;1.03;;
15071;SDS011;7635;56.696;13.002;2023-03-16T11:55:05;1.67;;;1.50;;
15071;SDS011;7635;56.696;13.002;2023-03-16T11:57:48;1.37;;;1.27;;
15071;SDS011;7635;56.696;13.002;2023-03-16T12:00:28;1.93;;;1.20;;
15071;SDS011;7635;56.696;13.002;2023-03-16T12:03:05;2.80;;;1.10;;
15071;SDS011;7635;56.696;13.002;2023-03-16T12:05:55;1.43;;;1.20;;
15071;SDS011;7635;56.696;13.002;2023-03-16T12:08:29;2.33;;;1.13;;
15071;SDS011;7635;56.696;13.002;2023-03-16T12:11:19;2.63;;;1.20;;
15071;SDS011;7635;56.696;13.002;2023-03-16T12:13:55;1.70;;;1.00;;
15071;SDS011;7635;56.696;13.002;2023-03-16T12:16:29;0.90;;;0.90;;
15071;SDS011;7635;56.696;13.002;2023-03-16T12:18:59;1.60;;;1.40;;
15071;SDS011;7635;56.696;13.002;2023-03-16T12:21:31;1.30;;;1.20;;
15071;SDS011;7635;56.696;13.002;2023-03-16T12:24:01;1.37;;;1.17;;
15071;SDS011;7635;56.696;13.002;2023-03-16T12:26:31;2.67;;;0.93;;
15071;SDS011;7635;56.696;13.002;2023-03-16T12:29:02;1.60;;;1.10;;
15071;SDS011;7635;56.696;13.002;2023-03-16T12:31:36;1.57;;;1.20;;
15071;SDS011;7635;56.696;13.002;2023-03-16T12:34:12;1.20;;;1.10;;
15071;SDS011;7635;56.696;13.002;2023-03-16T12:37:04;1.07;;;1.00;;
15071;SDS011;7635;56.696;13.002;2023-03-16T12:39:47;0.83;;;0.80;;
15071;SDS011;7635;56.696;13.002;2023-03-16T12:42:39;0.90;;;0.90;;
15071;SDS011;7635;56.696;13.002;2023-03-16T12:45:16;1.57;;;1.10;;
15071;SDS011;7635;56.696;13.002;2023-03-16T12:47:55;0.67;;;0.67;;
15071;SDS011;7635;56.696;13.002;2023-03-16T12:50:27;2.03;;;1.13;;
15071;SDS011;7635;56.696;13.002;2023-03-16T12:52:55;1.10;;;1.10;;
15071;SDS011;7635;56.696;13.002;2023-03-16T12:55:23;1.07;;;1.00;;
15071;SDS011;7635;56.696;13.002;2023-03-16T12:57:57;2.13;;;0.73;;
15071;SDS011;7635;56.696;13.002;2023-03-16T13:00:31;0.70;;;0.70;;
15071;SDS011;7635;56.696;13.002;2023-03-16T13:03:03;2.27;;;0.63;;
15071;SDS011;7635;56.696;13.002;2023-03-16T13:05:31;0.73;;;0.73;;
15071;SDS011;7635;56.696;13.002;2023-03-16T13:08:03;0.80;;;0.80;;
15071;SDS011;7635;56.696;13.002;2023-03-16T13:10:32;0.80;;;0.70;;
15071;SDS011;7635;56.696;13.002;2023-03-16T13:13:06;1.33;;;1.00;;
15071;SDS011;7635;56.696;13.002;2023-03-16T13:15:35;2.30;;;0.60;;
15071;SDS011;7635;56.696;13.002;2023-03-16T13:18:17;1.10;;;1.00;;
15071;SDS011;7635;56.696;13.002;2023-03-16T13:20:52;0.80;;;0.73;;
15071;SDS011;7635;56.696;13.002;2023-03-16T13:23:22;1.07;;;0.97;;
15071;SDS011;7635;56.696;13.002;2023-03-16T13:25:59;2.63;;;1.20;;
15071;SDS011;7635;56.696;13.002;2023-03-16T13:28:32;1.20;;;1.00;;
15071;SDS011;7635;56.696;13.002;2023-03-16T13:31:03;1.37;;;1.10;;
15071;SDS011;7635;56.696;13.002;2023-03-16T13:33:33;0.90;;;0.90;;
15071;SDS011;7635;56.696;13.002;2023-03-16T13:36:02;1.10;;;1.00;;
15071;SDS011;7635;56.696;13.002;2023-03-16T13:38:31;0.73;;;0.73;;
15071;SDS011;7635;56.696;13.002;2023-03-16T13:41:00;0.80;;;0.80;;
15071;SDS011;7635;56.696;13.002;2023-03-16T13:43:29;0.70;;;0.70;;
15071;SDS011;7635;56.696;13.002;2023-03-16T13:45:57;0.80;;;0.80;;
15071;SDS011;7635;56.696;13.002;2023-03-16T13:48:25;0.70;;;0.70;;
15071;SDS011;7635;56.696;13.002;2023-03-16T13:50:53;1.80;;;1.23;;
15071;SDS011;7635;56.696;13.002;2023-03-16T13:53:23;1.53;;;1.10;;
15071;SDS011;7635;56.696;13.002;2023-03-16T13:55:52;0.60;;;0.60;;
15071;SDS011;7635;56.696;13.002;2023-03-16T13:58:21;0.97;;;0.87;;
15071;SDS011;7635;56.696;13.002;2023-03-16T14:00:53;2.00;;;1.00;;
15071;SDS011;7635;56.696;13.002;2023-03-16T14:03:21;0.80;;;0.80;;
15071;SDS011;7635;56.696;13.002;2023-03-16T14:05:49;0.90;;;0.70;;
15071;SDS011;7635;56.696;13.002;2023-03-16T14:08:17;1.67;;;1.10;;
15071;SDS011;7635;56.696;13.002;2023-03-16T14:10:45;1.97;;;1.10;;
15071;SDS011;7635;56.696;13.002;2023-03-16T14:13:23;2.83;;;0.93;;
15071;SDS011;7635;56.696;13.002;2023-03-16T14:15:51;1.40;;;1.30;;
15071;SDS011;7635;56.696;13.002;2023-03-16T14:18:21;1.87;;;0.87;;
15071;SDS011;7635;56.696;13.002;2023-03-16T14:20:49;2.23;;;0.87;;
15071;SDS011;7635;56.696;13.002;2023-03-16T14:23:19;0.70;;;0.70;;
15071;SDS011;7635;56.696;13.002;2023-03-16T14:25:48;0.83;;;0.83;;
15071;SDS011;7635;56.696;13.002;2023-03-16T14:28:18;0.83;;;0.83;;
15071;SDS011;7635;56.696;13.002;2023-03-16T14:30:49;0.83;;;0.80;;
15071;SDS011;7635;56.696;13.002;2023-03-16T14:33:27;0.80;;;0.67;;
15071;SDS011;7635;56.696;13.002;2023-03-16T14:35:55;0.77;;;0.77;;
15071;SDS011;7635;56.696;13.002;2023-03-16T14:38:29;0.80;;;0.80;;
15071;SDS011;7635;56.696;13.002;2023-03-16T14:40:57;1.20;;;1.10;;
15071;SDS011;7635;56.696;13.002;2023-03-16T14:43:29;0.90;;;0.90;;
15071;SDS011;7635;56.696;13.002;2023-03-16T14:45:57;1.37;;;1.07;;
15071;SDS011;7635;56.696;13.002;2023-03-16T14:48:24;1.33;;;0.90;;
15071;SDS011;7635;56.696;13.002;2023-03-16T14:50:52;0.80;;;0.80;;
15071;SDS011;7635;56.696;13.002;2023-03-16T14:53:21;0.70;;;0.70;;
15071;SDS011;7635;56.696;13.002;2023-03-16T14:55:49;0.97;;;0.90;;
15071;SDS011;7635;56.696;13.002;2023-03-16T14:58:16;2.07;;;1.10;;
15071;SDS011;7635;56.696;13.002;2023-03-16T15:00:43;1.40;;;0.90;;
15071;SDS011;7635;56.696;13.002;2023-03-16T15:03:10;1.87;;;0.90;;